Time;durP1;ratioP1;P1;durP2;ratioP2;P2;SDS_P1;SDS_P2;PMS_P1;PMS_P2;Temp;Humidity;BMP_temperature;BMP_pressure;BME280_temperature;BME280_humidity;BME280_pressure;Samples;Min_cycle;Max_cycle;Signal;HPM_P1;HPM_P2
2024/04/15 00:00:49;;;;;;;7.07;1.40;;;;;;;5.15;100.00;100819.25;5405631;26;20713;-76
2024/04/15 00:03:16;;;;;;;4.78;1.30;;;;;;;5.18;100.00;100826.84;5406889;26;20331;-78
2024/04/15 00:05:47;;;;;;;9.68;1.50;;;;;;;5.13;100.00;100826.78;5407847;26;20395;-76
2024/04/15 00:08:14;;;;;;;9.00;1.65;;;;;;;5.15;100.00;100824.63;5406263;26;20836;-77
2024/04/15 00:10:47;;;;;;;6.47;1.40;;;;;;;5.14;100.00;100821.13;5406492;26;20331;-78
2024/04/15 00:13:15;;;;;;;10.65;1.80;;;;;;;5.10;100.00;100826.19;5405804;26;20320;-77
2024/04/15 00:15:45;;;;;;;14.75;2.00;;;;;;;5.25;100.00;100817.56;5406465;26;20867;-76
2024/04/15 00:18:13;;;;;;;10.20;1.70;;;;;;;5.21;100.00;100816.41;5407227;26;20375;-77
2024/04/15 00:20:43;;;;;;;18.20;2.20;;;;;;;5.32;100.00;100816.59;5408494;26;20363;-76
2024/04/15 00:23:10;;;;;;;10.77;1.80;;;;;;;5.23;100.00;100825.09;5406562;26;20815;-77
2024/04/15 00:25:40;;;;;;;10.32;1.60;;;;;;;5.21;100.00;100824.50;5404026;26;20375;-78
2024/04/15 00:28:10;;;;;;;12.77;2.00;;;;;;;5.26;100.00;100811.13;5406193;26;20329;-78
2024/04/15 00:30:40;;;;;;;13.77;2.10;;;;;;;5.30;100.00;100807.94;5433995;26;20747;-79
2024/04/15 00:33:08;;;;;;;9.23;1.60;;;;;;;5.39;100.00;100804.59;5407274;26;20402;-77
2024/04/15 00:35:38;;;;;;;14.17;1.80;;;;;;;5.43;100.00;100800.34;5408497;26;20480;-77
2024/04/15 00:38:06;;;;;;;11.20;1.70;;;;;;;5.32;100.00;100798.53;5431907;26;20400;-76
2024/04/15 00:40:36;;;;;;;7.93;1.77;;;;;;;5.44;100.00;100798.47;5403853;26;20393;-77
2024/04/15 00:43:03;;;;;;;9.07;1.80;;;;;;;5.43;100.00;100789.56;5407132;26;20323;-77
2024/04/15 00:45:36;;;;;;;9.80;1.38;;;;;;;5.41;100.00;100790.84;5434667;26;20331;-77
2024/04/15 00:48:06;;;;;;;10.88;1.80;;;;;;;5.36;100.00;100782.66;5404095;26;20335;-76
2024/04/15 00:50:40;;;;;;;15.18;1.60;;;;;;;5.30;100.00;100776.34;5406020;26;20324;-76
2024/04/15 00:53:10;;;;;;;9.15;1.80;;;;;;;5.23;100.00;100776.53;5431370;26;20411;-78
2024/04/15 00:55:42;;;;;;;12.65;1.90;;;;;;;5.23;100.00;100778.38;5403860;26;20374;-76
2024/04/15 00:58:11;;;;;;;13.30;2.25;;;;;;;5.38;100.00;100778.66;5406805;26;20387;-76
2024/04/15 01:00:49;;;;;;;13.48;2.05;;;;;;;5.32;100.00;100774.25;5403189;26;20352;-79
2024/04/15 01:03:17;;;;;;;11.20;1.80;;;;;;;5.44;100.00;100766.91;5435303;26;20823;-76
2024/04/15 01:05:47;;;;;;;13.40;2.17;;;;;;;5.34;100.00;100777.50;5404573;26;20392;-75
2024/04/15 01:08:15;;;;;;;10.30;1.95;;;;;;;5.35;100.00;100768.38;5402218;26;20690;-76
2024/04/15 01:10:45;;;;;;;13.35;2.20;;;;;;;5.33;100.00;100766.97;5432556;26;21428;-77
2024/04/15 01:13:13;;;;;;;8.52;1.90;;;;;;;5.28;100.00;100757.72;5434258;26;20988;-77
2024/04/15 01:15:43;;;;;;;9.87;1.90;;;;;;;5.25;100.00;100747.41;5405060;26;20353;-77
2024/04/15 01:18:14;;;;;;;9.25;1.77;;;;;;;5.30;100.00;100745.88;5402954;26;20391;-77
2024/04/15 01:20:44;;;;;;;9.68;1.80;;;;;;;5.32;100.00;100743.72;5405997;26;20408;-76
2024/04/15 01:23:14;;;;;;;12.20;1.90;;;;;;;5.52;100.00;100727.88;5403295;26;20863;-78
2024/04/15 01:25:47;;;;;;;11.30;1.92;;;;;;;5.28;100.00;100724.53;5405136;26;20371;-77
2024/04/15 01:28:18;;;;;;;9.15;1.60;;;;;;;5.17;100.00;100718.13;5431321;26;20324;-76
2024/04/15 01:30:49;;;;;;;9.50;1.75;;;;;;;5.18;100.00;100711.69;5402904;26;20688;-76
2024/04/15 01:33:16;;;;;;;8.38;1.75;;;;;;;5.14;100.00;100713.22;5404796;26;20327;-77
2024/04/15 01:35:46;;;;;;;10.82;1.90;;;;;;;5.07;100.00;100702.59;5407284;26;20370;-77
2024/04/15 01:38:13;;;;;;;11.67;1.90;;;;;;;5.04;100.00;100708.47;5406649;26;20323;-77
2024/04/15 01:40:46;;;;;;;9.82;1.73;;;;;;;5.02;100.00;100702.47;5409726;26;20366;-76
2024/04/15 01:43:14;;;;;;;9.95;1.67;;;;;;;4.99;100.00;100691.38;5410252;26;20387;-77
2024/04/15 01:45:44;;;;;;;9.57;1.60;;;;;;;4.94;100.00;100686.69;5408868;26;20671;-77
2024/04/15 01:48:11;;;;;;;10.07;2.10;;;;;;;4.77;100.00;100686.66;5403711;26;20406;-77
2024/04/15 01:50:41;;;;;;;13.52;2.30;;;;;;;4.96;100.00;100692.69;5434066;26;20326;-78
2024/04/15 01:53:11;;;;;;;10.07;1.73;;;;;;;4.77;100.00;100692.03;5406982;26;20370;-77
2024/04/15 01:55:41;;;;;;;13.30;2.10;;;;;;;4.69;100.00;100690.53;5408502;26;20565;-78
2024/04/15 01:58:11;;;;;;;7.47;1.70;;;;;;;4.58;100.00;100680.63;5410280;26;20382;-79
2024/04/15 02:00:42;;;;;;;11.20;1.85;;;;;;;4.41;100.00;100680.56;5406193;26;20373;-78
2024/04/15 02:03:09;;;;;;;9.48;1.98;;;;;;;4.32;100.00;100680.09;5407030;26;20430;-76
2024/04/15 02:05:39;;;;;;;13.50;1.98;;;;;;;4.24;100.00;100677.81;5407474;26;20405;-76
2024/04/15 02:08:07;;;;;;;13.40;2.22;;;;;;;4.16;100.00;100667.41;5407022;26;20379;-76
2024/04/15 02:10:37;;;;;;;10.70;2.00;;;;;;;4.08;100.00;100658.59;5410254;26;20346;-79
2024/04/15 02:13:04;;;;;;;8.70;2.08;;;;;;;3.99;100.00;100653.81;5408119;26;20341;-77
2024/04/15 02:15:37;;;;;;;10.65;1.98;;;;;;;3.95;100.00;100649.97;5408206;26;20431;-76
2024/04/15 02:18:04;;;;;;;9.50;1.97;;;;;;;3.89;100.00;100649.03;5408372;26;20740;-76
2024/04/15 02:20:34;;;;;;;13.52;2.20;;;;;;;3.80;100.00;100647.75;5408687;26;20390;-77
2024/04/15 02:23:02;;;;;;;7.47;1.80;;;;;;;3.77;100.00;100649.06;5402727;26;20331;-76
2024/04/15 02:25:32;;;;;;;6.25;1.65;;;;;;;3.70;100.00;100641.13;5407351;26;20384;-76
2024/04/15 02:27:59;;;;;;;10.17;2.20;;;;;;;3.81;100.00;100641.31;5408475;26;20356;-77
2024/04/15 02:30:29;;;;;;;11.25;2.10;;;;;;;3.54;100.00;100636.44;5406977;26;21001;-77
2024/04/15 02:32:59;;;;;;;10.70;1.80;;;;;;;3.47;100.00;100633.84;5409150;26;20723;-78
2024/04/15 02:35:30;;;;;;;8.23;1.73;;;;;;;3.44;100.00;100630.81;5407965;26;20324;-78
2024/04/15 02:37:57;;;;;;;8.68;1.83;;;;;;;3.33;100.00;100621.66;5409905;26;20328;-78
2024/04/15 02:40:27;;;;;;;10.82;2.22;;;;;;;3.39;100.00;100628.81;5407165;26;20443;-77
2024/04/15 02:42:55;;;;;;;9.30;2.38;;;;;;;3.38;100.00;100619.09;5433062;26;20323;-76
2024/04/15 02:45:25;;;;;;;10.80;2.05;;;;;;;3.36;100.00;100627.41;5408034;26;20335;-77
2024/04/15 02:47:52;;;;;;;8.88;2.17;;;;;;;3.32;100.00;100636.19;5406049;26;20409;-77
2024/04/15 02:50:25;;;;;;;12.73;1.90;;;;;;;3.33;100.00;100627.03;5407877;26;20391;-78
2024/04/15 02:52:52;;;;;;;10.57;2.30;;;;;;;3.24;100.00;100621.19;5433167;26;21270;-76
2024/04/15 02:55:22;;;;;;;13.77;2.23;;;;;;;3.41;100.00;100629.38;5407522;26;20545;-77
2024/04/15 02:57:50;;;;;;;14.35;1.90;;;;;;;3.33;100.00;100627.03;5405557;26;20389;-79
2024/04/15 03:00:20;;;;;;;10.67;1.80;;;;;;;3.24;100.00;100631.97;5407105;26;20442;-76
2024/04/15 03:02:49;;;;;;;8.23;1.90;;;;;;;3.18;100.00;100628.34;5408718;26;20374;-77
2024/04/15 03:05:20;;;;;;;12.20;2.30;;;;;;;3.12;100.00;100621.19;5406664;26;21185;-77
2024/04/15 03:07:50;;;;;;;13.77;2.08;;;;;;;3.03;100.00;100620.69;5403143;26;20862;-78
2024/04/15 03:10:20;;;;;;;11.32;1.90;;;;;;;2.98;100.00;100620.56;5406054;26;20323;-76
2024/04/15 03:12:51;;;;;;;13.82;2.03;;;;;;;2.96;100.00;100608.44;5408972;26;20736;-76
2024/04/15 03:15:21;;;;;;;7.43;1.90;;;;;;;3.13;100.00;100600.50;5434190;26;20425;-76
2024/04/15 03:17:48;;;;;;;9.48;1.88;;;;;;;3.28;100.00;100590.09;5434636;26;20328;-77
2024/04/15 03:20:18;;;;;;;11.95;1.98;;;;;;;3.17;100.00;100589.03;5404479;26;20388;-76
2024/04/15 03:22:51;;;;;;;12.47;2.20;;;;;;;3.06;100.00;100587.16;5433973;26;20389;-76
2024/04/15 03:25:22;;;;;;;11.40;1.88;;;;;;;3.13;100.00;100590.56;5406977;26;20341;-76
2024/04/15 03:27:49;;;;;;;12.85;2.17;;;;;;;3.19;100.00;100578.88;5408660;26;20386;-76
2024/04/15 03:30:19;;;;;;;11.50;2.20;;;;;;;3.06;100.00;100581.78;5407185;26;20357;-78
2024/04/15 03:32:47;;;;;;;11.25;1.90;;;;;;;2.99;100.00;100581.06;5408287;26;20367;-76
2024/04/15 03:35:18;;;;;;;9.30;2.13;;;;;;;2.96;100.00;100576.97;5405682;26;20373;-75
2024/04/15 03:37:48;;;;;;;10.20;1.80;;;;;;;2.91;100.00;100574.16;5406577;26;20892;-78
2024/04/15 03:40:21;;;;;;;12.97;1.97;;;;;;;2.84;100.00;100568.06;5437541;26;20739;-77
2024/04/15 03:42:51;;;;;;;10.98;2.28;;;;;;;2.80;100.00;100567.72;5433960;26;20331;-76
2024/04/15 03:45:19;;;;;;;8.93;1.80;;;;;;;2.77;100.00;100562.00;5407072;26;20323;-77
2024/04/15 03:47:49;;;;;;;10.15;1.98;;;;;;;2.74;100.00;100565.16;5406111;26;20335;-77
2024/04/15 03:50:16;;;;;;;11.73;2.07;;;;;;;2.73;100.00;100567.00;5407529;26;20924;-76
2024/04/15 03:52:46;;;;;;;10.88;2.22;;;;;;;2.64;100.00;100558.47;5405726;26;20331;-78
2024/04/15 03:55:17;;;;;;;9.35;2.03;;;;;;;2.63;100.00;100561.38;5405685;26;20383;-77
2024/04/15 03:57:47;;;;;;;10.80;2.13;;;;;;;2.88;100.00;100556.63;5434072;26;21023;-76
2024/04/15 04:00:18;;;;;;;10.00;2.00;;;;;;;2.65;100.00;100551.22;5406013;26;20371;-75
2024/04/15 04:02:45;;;;;;;10.93;2.83;;;;;;;2.59;100.00;100557.50;5403772;26;20391;-76
2024/04/15 04:05:15;;;;;;;14.02;3.83;;;;;;;2.82;100.00;100554.06;5406886;26;20391;-77
2024/04/15 04:07:43;;;;;;;16.38;4.78;;;;;;;2.62;100.00;100543.63;5406105;26;20663;-76
2024/04/15 04:10:14;;;;;;;14.93;5.13;;;;;;;2.61;100.00;100539.28;5407504;26;20346;-78
2024/04/15 04:12:41;;;;;;;14.07;5.30;;;;;;;2.59;100.00;100539.50;5437071;26;20375;-76
2024/04/15 04:15:14;;;;;;;11.57;4.28;;;;;;;2.74;100.00;100540.97;5402069;26;20375;-77
2024/04/15 04:17:44;;;;;;;17.63;3.57;;;;;;;2.62;100.00;100549.78;5432838;26;20358;-76
2024/04/15 04:20:14;;;;;;;8.77;2.42;;;;;;;2.52;100.00;100546.88;5407816;26;20380;-77
2024/04/15 04:22:41;;;;;;;12.15;2.03;;;;;;;2.57;100.00;100535.41;5434889;26;20394;-75
2024/04/15 04:25:11;;;;;;;10.53;2.23;;;;;;;2.52;100.00;100538.81;5401926;26;20328;-78
2024/04/15 04:27:41;;;;;;;12.47;2.10;;;;;;;2.54;100.00;100532.16;5408599;26;20593;-76
2024/04/15 04:30:14;;;;;;;11.85;2.15;;;;;;;2.51;100.00;100529.09;5405692;26;20353;-76
2024/04/15 04:32:42;;;;;;;11.95;2.05;;;;;;;2.50;100.00;100530.13;5406178;26;20371;-78
2024/04/15 04:35:12;;;;;;;10.50;2.20;;;;;;;2.48;100.00;100522.31;5404310;26;20379;-77
2024/04/15 04:37:40;;;;;;;9.52;2.63;;;;;;;2.53;100.00;100517.09;5407464;26;20312;-78
2024/04/15 04:40:11;;;;;;;14.35;2.80;;;;;;;2.68;100.00;100510.44;5405339;26;20358;-76
2024/04/15 04:42:44;;;;;;;10.90;2.00;;;;;;;2.78;100.00;100513.38;5404847;26;20377;-75
2024/04/15 04:45:15;;;;;;;10.10;2.08;;;;;;;2.87;100.00;100509.31;5407614;26;20323;-76
2024/04/15 04:47:45;;;;;;;9.40;1.80;;;;;;;3.01;100.00;100507.22;5403395;26;20323;-76
2024/04/15 04:50:12;;;;;;;14.35;2.00;;;;;;;3.01;100.00;100504.53;5430135;26;20389;-77
2024/04/15 04:52:43;;;;;;;11.13;2.10;;;;;;;3.25;100.00;100487.56;5404121;26;20774;-76
2024/04/15 04:55:10;;;;;;;11.80;2.10;;;;;;;3.34;100.00;100484.28;5405291;26;20320;-77
2024/04/15 04:57:40;;;;;;;8.33;1.93;;;;;;;3.45;100.00;100476.41;5400636;26;20340;-76
2024/04/15 05:00:09;;;;;;;9.13;2.40;;;;;;;3.53;100.00;100476.03;5401094;26;20327;-76
2024/04/15 05:02:42;;;;;;;9.77;3.40;;;;;;;3.78;100.00;100472.22;5426706;26;20340;-77
2024/04/15 05:05:09;;;;;;;13.52;3.40;;;;;;;4.26;100.00;100482.53;5402781;26;20390;-78
2024/04/15 05:07:39;;;;;;;12.05;2.40;;;;;;;5.28;100.00;100476.28;5400158;26;20371;-77
2024/04/15 05:10:07;;;;;;;8.27;1.90;;;;;;;6.33;100.00;100475.31;5396459;26;20349;-78
2024/04/15 05:12:37;;;;;;;9.88;1.70;;;;;;;7.13;100.00;100467.25;5408670;26;20346;-76
2024/04/15 05:15:05;;;;;;;9.50;1.97;;;;;;;7.14;100.00;100449.13;5406268;26;20353;-76
2024/04/15 05:17:35;;;;;;;8.90;2.15;;;;;;;6.57;100.00;100446.06;5408399;26;20716;-75
2024/04/15 05:20:07;;;;;;;12.18;1.85;;;;;;;6.07;100.00;100437.25;5409726;26;20880;-76
2024/04/15 05:22:38;;;;;;;9.20;2.35;;;;;;;5.69;100.00;100439.00;5433849;26;20337;-77
2024/04/15 05:25:05;;;;;;;12.57;3.55;;;;;;;5.53;100.00;100445.28;5404980;26;20357;-77
2024/04/15 05:27:35;;;;;;;7.95;2.00;;;;;;;5.47;100.00;100449.81;5412194;26;20386;-76
2024/04/15 05:30:03;;;;;;;9.88;1.80;;;;;;;5.27;100.00;100445.81;5408583;26;20365;-75
2024/04/15 05:32:33;;;;;;;9.48;1.77;;;;;;;5.19;100.00;100453.50;5435054;26;20335;-76
2024/04/15 05:35:01;;;;;;;9.30;2.07;;;;;;;5.24;100.00;100448.97;5408623;26;20466;-76
2024/04/15 05:37:34;;;;;;;11.68;1.80;;;;;;;5.27;100.00;100444.97;5409798;26;20406;-76
2024/04/15 05:40:01;;;;;;;9.32;1.88;;;;;;;5.20;100.00;100444.34;5407032;26;20323;-76
2024/04/15 05:42:31;;;;;;;12.50;2.20;;;;;;;5.26;100.00;100440.63;5435633;26;20327;-76
2024/04/15 05:45:02;;;;;;;13.48;2.10;;;;;;;5.23;100.00;100438.44;5404670;26;20375;-76
2024/04/15 05:47:32;;;;;;;9.32;1.88;;;;;;;5.18;100.00;100432.97;5409880;26;20387;-76
2024/04/15 05:50:00;;;;;;;11.75;2.05;;;;;;;5.24;100.00;100438.19;5430463;26;20327;-77
2024/04/15 05:52:30;;;;;;;10.05;2.03;;;;;;;5.22;100.00;100428.69;5407185;26;20714;-76
2024/04/15 05:55:00;;;;;;;11.30;1.88;;;;;;;5.52;100.00;100435.56;5434971;26;20369;-76
2024/04/15 05:57:30;;;;;;;8.73;1.90;;;;;;;5.78;100.00;100426.66;5408255;26;20350;-77
2024/04/15 05:59:57;;;;;;;11.35;1.88;;;;;;;6.11;100.00;100426.75;5407067;26;20387;-76
2024/04/15 06:02:28;;;;;;;12.57;2.08;;;;;;;6.27;100.00;100416.88;5405553;26;20324;-78
2024/04/15 06:04:55;;;;;;;14.23;2.20;;;;;;;6.46;100.00;100403.78;5403431;26;20838;-76
2024/04/15 06:07:25;;;;;;;11.40;2.10;;;;;;;6.59;100.00;100410.66;5404179;26;20323;-76
2024/04/15 06:09:52;;;;;;;12.98;1.92;;;;;;;6.71;100.00;100403.16;5404842;26;20713;-78
2024/04/15 06:12:28;;;;;;;10.82;1.80;;;;;;;6.72;100.00;100396.66;5407462;26;20324;-75
2024/04/15 06:14:56;;;;;;;11.52;2.08;;;;;;;6.73;100.00;100392.09;5403846;26;20878;-76
2024/04/15 06:17:26;;;;;;;12.65;1.70;;;;;;;6.57;100.00;100383.88;5406729;26;20335;-77
2024/04/15 06:19:53;;;;;;;13.35;1.80;;;;;;;6.68;100.00;100387.44;5405455;26;20323;-78
2024/04/15 06:22:23;;;;;;;10.18;1.85;;;;;;;6.62;100.00;100381.19;5405063;26;20328;-76
2024/04/15 06:24:51;;;;;;;10.32;1.95;;;;;;;6.80;100.00;100371.03;5407338;26;21005;-79
2024/04/15 06:27:21;;;;;;;8.65;1.95;;;;;;;6.79;100.00;100370.22;5409165;26;20370;-77
2024/04/15 06:29:51;;;;;;;10.68;1.80;;;;;;;6.60;100.00;100371.72;5403763;26;20324;-77
2024/04/15 06:32:21;;;;;;;12.80;2.28;;;;;;;6.69;100.00;100361.22;5408865;26;20382;-77
2024/04/15 06:34:48;;;;;;;12.98;2.00;;;;;;;6.85;100.00;100357.53;5408435;26;20394;-78
2024/04/15 06:37:18;;;;;;;10.60;1.80;;;;;;;6.97;100.00;100354.59;5410665;26;20387;-78
2024/04/15 06:39:46;;;;;;;10.82;1.90;;;;;;;7.17;100.00;100339.53;5408531;26;20394;-77
2024/04/15 06:42:16;;;;;;;13.90;2.20;;;;;;;7.16;100.00;100341.44;5440554;26;20395;-77
2024/04/15 06:44:43;;;;;;;9.48;1.70;;;;;;;7.29;100.00;100332.00;5404555;26;20357;-77
2024/04/15 06:47:16;;;;;;;13.43;2.13;;;;;;;7.36;100.00;100326.31;5410028;26;20391;-79
2024/04/15 06:49:44;;;;;;;11.00;1.90;;;;;;;7.39;100.00;100332.03;5433233;26;20687;-78
2024/04/15 06:52:14;;;;;;;12.30;2.00;;;;;;;7.55;100.00;100329.34;5405914;26;20332;-78
2024/04/15 06:54:42;;;;;;;12.15;2.10;;;;;;;7.51;100.00;100325.56;5411204;26;20905;-78
2024/04/15 06:57:12;;;;;;;14.52;2.33;;;;;;;7.53;100.00;100316.09;5437389;26;20902;-77
2024/04/15 06:59:40;;;;;;;12.60;1.95;;;;;;;7.49;100.00;100317.69;5429161;26;20654;-79
2024/04/15 07:02:13;;;;;;;11.80;2.28;;;;;;;7.41;100.00;100318.22;5427123;26;20882;-77
2024/04/15 07:04:43;;;;;;;10.65;2.83;;;;;;;7.34;100.00;100306.84;5406016;26;21161;-77
2024/04/15 07:07:13;;;;;;;11.43;1.92;;;;;;;7.39;100.00;100299.53;5407085;26;20351;-75
2024/04/15 07:09:40;;;;;;;11.50;2.00;;;;;;;7.47;100.00;100298.19;5400176;26;20320;-77
2024/04/15 07:12:11;;;;;;;9.25;2.38;;;;;;;7.54;100.00;100289.81;5403878;26;20327;-76
2024/04/15 07:14:39;;;;;;;10.43;2.00;;;;;;;7.75;100.00;100282.53;5403096;26;20319;-76
2024/04/15 07:17:09;;;;;;;9.50;2.17;;;;;;;7.90;100.00;100278.97;5404824;26;20308;-76
2024/04/15 07:19:36;;;;;;;15.30;2.17;;;;;;;8.07;100.00;100268.69;5394710;26;20361;-77
2024/04/15 07:22:09;;;;;;;11.55;2.22;;;;;;;8.20;100.00;100263.78;5403174;26;20362;-79
2024/04/15 07:24:36;;;;;;;11.68;1.92;;;;;;;8.29;100.00;100254.00;5403812;26;20835;-77
2024/04/15 07:27:07;;;;;;;13.23;2.05;;;;;;;8.64;100.00;100263.16;5434035;26;21110;-75
2024/04/15 07:29:35;;;;;;;9.10;1.87;;;;;;;8.87;100.00;100250.84;5406089;26;20328;-76
2024/04/15 07:32:06;;;;;;;14.67;2.20;;;;;;;9.01;100.00;100245.63;5396088;26;20363;-77
2024/04/15 07:34:34;;;;;;;7.45;2.13;;;;;;;9.33;100.00;100252.47;5399972;26;20712;-79
2024/04/15 07:37:16;;;;;;;11.65;2.20;;;;;;;9.55;100.00;100238.47;5351132;26;20385;-79
2024/04/15 07:39:46;;;;;;;9.57;2.10;;;;;;;10.02;100.00;100234.25;5358486;26;20332;-79
2024/04/15 07:42:21;;;;;;;12.93;2.40;;;;;;;10.13;100.00;100231.44;5349713;26;20907;-78
2024/04/15 07:44:49;;;;;;;9.50;2.22;;;;;;;10.37;100.00;100228.75;5357247;26;20360;-78
2024/04/15 07:47:19;;;;;;;10.77;2.20;;;;;;;10.49;100.00;100220.19;5345834;26;20347;-79
2024/04/15 07:49:47;;;;;;;11.40;2.22;;;;;;;10.58;100.00;100213.00;5355013;26;20343;-77
2024/04/15 07:52:20;;;;;;;10.15;2.30;;;;;;;10.30;100.00;100206.50;5349131;26;20358;-78
2024/04/15 07:54:47;;;;;;;12.13;2.83;;;;;;;10.41;100.00;100196.34;5343451;26;20339;-79
2024/04/15 07:57:17;;;;;;;13.57;2.80;;;;;;;10.11;100.00;100192.84;5340906;26;20346;-78
2024/04/15 07:59:46;;;;;;;8.23;2.15;;;;;;;9.99;100.00;100199.47;5363024;26;20312;-78
2024/04/15 08:02:16;;;;;;;10.45;2.70;;;;;;;10.26;100.00;100200.00;5335953;26;20847;-79
2024/04/15 08:04:46;;;;;;;11.57;2.53;;;;;;;10.26;100.00;100191.84;5337835;26;20346;-76
2024/04/15 08:07:16;;;;;;;9.00;2.53;;;;;;;10.33;100.00;100200.47;5356356;26;20376;-78
2024/04/15 08:09:47;;;;;;;12.50;2.45;;;;;;;9.92;100.00;100198.22;5347595;26;20361;-77
2024/04/15 08:12:17;;;;;;;12.13;2.95;;;;;;;10.07;100.00;100187.19;5338094;26;21333;-77
2024/04/15 08:14:44;;;;;;;9.63;2.22;;;;;;;10.05;100.00;100189.38;5356893;26;20330;-76
2024/04/15 08:17:14;;;;;;;12.65;3.08;;;;;;;10.21;100.00;100185.38;5334172;26;20752;-78
2024/04/15 08:19:42;;;;;;;8.70;2.00;;;;;;;10.42;100.00;100181.66;5326720;26;20383;-77
2024/04/15 08:22:12;;;;;;;8.07;2.25;;;;;;;10.37;100.00;100185.22;5337143;26;21323;-78
2024/04/15 08:24:42;;;;;;;11.55;2.20;;;;;;;10.65;100.00;100180.00;5331223;26;21264;-78
2024/04/15 08:27:14;;;;;;;6.63;1.80;;;;;;;10.42;100.00;100170.78;5332866;26;20874;-78
2024/04/15 08:29:43;;;;;;;7.50;1.80;;;;;;;10.77;100.00;100155.06;5336880;26;20398;-77
2024/04/15 08:32:13;;;;;;;11.80;3.28;;;;;;;10.77;100.00;100138.72;5344102;26;22989;-79
2024/04/15 08:34:40;;;;;;;7.88;1.95;;;;;;;10.65;100.00;100136.47;5354911;26;20327;-78
2024/04/15 08:37:10;;;;;;;11.02;2.38;;;;;;;10.69;100.00;100140.22;5312076;26;22451;-79
2024/04/15 08:39:38;;;;;;;7.65;1.65;;;;;;;10.87;100.00;100133.16;5327458;26;20835;-79
2024/04/15 08:42:22;;;;;;;7.90;1.90;;;;;;;10.67;100.00;100126.88;5331555;26;20376;-78
2024/04/15 08:44:50;;;;;;;7.60;1.88;;;;;;;10.64;100.00;100127.47;5321216;26;22696;-77
2024/04/15 08:47:25;;;;;;;8.23;1.80;;;;;;;10.69;100.00;100116.53;5349925;26;20370;-79
2024/04/15 08:49:55;;;;;;;7.97;1.90;;;;;;;10.78;100.00;100119.38;5368118;26;20476;-79
2024/04/15 08:52:26;;;;;;;9.13;3.13;;;;;;;10.84;100.00;100107.31;5345566;26;20367;-78
2024/04/15 08:54:54;;;;;;;7.50;2.33;;;;;;;10.87;100.00;100111.38;5346852;26;21334;-79
2024/04/15 08:57:31;;;;;;;9.88;2.63;;;;;;;10.95;100.00;100107.16;5376732;26;20341;-78
2024/04/15 09:00:00;;;;;;;9.38;2.00;;;;;;;10.96;100.00;100093.25;5333674;26;20334;-79
2024/04/15 09:02:31;;;;;;;12.90;3.45;;;;;;;10.75;100.00;100087.31;5374156;26;20841;-77
2024/04/15 09:04:59;;;;;;;8.48;1.90;;;;;;;10.44;100.00;100082.34;5344750;26;20328;-77
2024/04/15 09:07:29;;;;;;;10.07;2.38;;;;;;;10.46;100.00;100088.28;5339973;26;20334;-78
2024/04/15 09:09:56;;;;;;;8.18;1.85;;;;;;;10.74;100.00;100091.13;5342196;26;20331;-76
2024/04/15 09:12:37;;;;;;;7.50;2.20;;;;;;;10.86;100.00;100077.88;5336150;26;20878;-77
2024/04/15 09:15:05;;;;;;;7.82;3.05;;;;;;;10.88;100.00;100083.03;5335943;26;20327;-78
2024/04/15 09:17:35;;;;;;;7.70;2.30;;;;;;;10.82;100.00;100073.34;5342730;26;20363;-78
2024/04/15 09:20:04;;;;;;;8.98;2.08;;;;;;;10.72;100.00;100071.59;5363702;26;20348;-79
2024/04/15 09:22:35;;;;;;;8.00;2.20;;;;;;;10.71;100.00;100067.25;5382841;26;20363;-77
2024/04/15 09:25:05;;;;;;;9.02;2.88;;;;;;;10.64;100.00;100073.03;5348130;26;20370;-78
2024/04/15 09:27:37;;;;;;;7.18;2.10;;;;;;;10.48;100.00;100072.47;5344090;26;20334;-79
2024/04/15 09:30:07;;;;;;;7.60;2.20;;;;;;;10.56;100.00;100065.53;5342659;26;20327;-80
2024/04/15 09:32:37;;;;;;;9.13;2.70;;;;;;;10.93;100.00;100049.50;5344040;26;20348;-79
2024/04/15 09:35:07;;;;;;;8.10;2.30;;;;;;;10.86;100.00;100060.75;5342837;26;20327;-79
2024/04/15 09:37:38;;;;;;;8.57;3.15;;;;;;;10.51;100.00;100068.38;5302840;26;20346;-79
2024/04/15 09:40:13;;;;;;;12.40;3.50;;;;;;;10.36;100.00;100061.22;5337499;26;20334;-79
2024/04/15 09:42:47;;;;;;;11.63;3.90;;;;;;;10.17;100.00;100061.19;5337172;26;20750;-76
2024/04/15 09:45:16;;;;;;;10.00;3.43;;;;;;;10.27;100.00;100054.78;5375623;26;20319;-79
2024/04/15 09:47:47;;;;;;;10.65;3.65;;;;;;;10.28;100.00;100054.50;5337955;26;20397;-76
2024/04/15 09:50:15;;;;;;;13.15;3.35;;;;;;;10.49;100.00;100051.50;5342329;26;20339;-78
2024/04/15 09:52:45;;;;;;;10.20;3.10;;;;;;;10.54;100.00;100037.84;5339141;26;20569;-76
2024/04/15 09:55:25;;;;;;;10.38;3.20;;;;;;;10.75;100.00;100027.44;5348868;26;20373;-77
2024/04/15 09:58:00;;;;;;;7.72;2.97;;;;;;;11.01;100.00;100027.81;5353776;26;21281;-79
2024/04/15 10:00:36;;;;;;;10.07;3.10;;;;;;;10.91;100.00;100028.00;5340320;26;20375;-79
2024/04/15 10:03:15;;;;;;;11.45;2.97;;;;;;;10.95;100.00;100012.69;5341104;26;20350;-78
2024/04/15 10:05:55;;;;;;;10.00;3.03;;;;;;;11.27;100.00;100004.75;5360384;26;20342;-81
2024/04/15 10:08:23;;;;;;;10.93;3.00;;;;;;;11.62;100.00;100011.44;5356015;26;20332;-79
2024/04/15 10:10:56;;;;;;;10.32;2.72;;;;;;;12.01;100.00;99992.97;5372503;26;21008;-77
2024/04/15 10:13:27;;;;;;;9.02;3.00;;;;;;;12.24;100.00;99986.44;5340740;26;21534;-82
2024/04/15 10:16:01;;;;;;;11.00;3.03;;;;;;;11.97;100.00;99981.03;5377729;26;20398;-78
2024/04/15 10:18:29;;;;;;;8.77;2.88;;;;;;;11.89;100.00;99974.34;5346421;26;20342;-79
2024/04/15 10:21:00;;;;;;;9.82;2.92;;;;;;;11.86;100.00;99956.72;5384846;26;20354;-78
2024/04/15 10:23:28;;;;;;;9.52;2.90;;;;;;;12.11;100.00;99935.47;5344533;26;21214;-81
2024/04/15 10:25:58;;;;;;;12.23;2.70;;;;;;;12.05;100.00;99932.03;5354142;26;20656;-78
2024/04/15 10:28:28;;;;;;;7.00;2.38;;;;;;;12.07;100.00;99918.91;5354833;26;20342;-78
2024/04/15 10:31:03;;;;;;;10.35;3.00;;;;;;;11.81;100.00;99893.31;5357756;26;20330;-79
2024/04/15 10:33:31;;;;;;;11.73;3.00;;;;;;;11.63;100.00;99897.78;5349766;26;22068;-77
2024/04/15 10:36:01;;;;;;;8.60;2.72;;;;;;;11.76;100.00;99890.69;5343536;26;20332;-78
2024/04/15 10:38:29;;;;;;;8.67;2.70;;;;;;;12.11;100.00;99883.66;5320408;26;20342;-80
2024/04/15 10:41:09;;;;;;;7.85;2.80;;;;;;;12.11;100.00;99883.66;5340603;26;20350;-80
2024/04/15 10:43:39;;;;;;;9.18;3.00;;;;;;;12.10;100.00;99868.41;5377468;26;20335;-79
2024/04/15 10:46:10;;;;;;;10.85;2.70;;;;;;;12.36;100.00;99870.47;5337576;26;20343;-77
2024/04/15 10:48:38;;;;;;;7.55;2.40;;;;;;;12.65;100.00;99859.09;5339511;26;20390;-80
2024/04/15 10:51:09;;;;;;;9.17;2.53;;;;;;;12.71;100.00;99846.91;5349794;26;20402;-80
2024/04/15 10:53:37;;;;;;;6.65;2.50;;;;;;;12.68;100.00;99846.75;5343273;26;20327;-79
2024/04/15 10:56:09;;;;;;;6.47;2.40;;;;;;;12.40;100.00;99852.34;5372396;26;20318;-77
2024/04/15 10:58:40;;;;;;;5.38;2.03;;;;;;;12.24;100.00;99849.22;5375934;26;20332;-80
2024/04/15 11:01:16;;;;;;;8.30;2.10;;;;;;;12.12;96.80;99840.81;5348889;26;20973;-78
2024/04/15 11:03:45;;;;;;;10.15;2.60;;;;;;;12.22;100.00;99835.09;5361325;26;20368;-78
2024/04/15 11:06:16;;;;;;;8.82;2.67;;;;;;;12.59;100.00;99824.84;5328070;26;20376;-78
2024/04/15 11:08:44;;;;;;;7.23;2.30;;;;;;;12.87;100.00;99827.38;5330838;26;20622;-78
2024/04/15 11:11:16;;;;;;;7.55;2.28;;;;;;;12.92;100.00;99811.63;5356494;26;20404;-79
2024/04/15 11:13:51;;;;;;;7.47;2.20;;;;;;;12.57;97.30;99814.25;5339100;26;21021;-79
2024/04/15 11:16:21;;;;;;;5.55;1.90;;;;;;;12.69;99.42;99810.94;5368869;26;20345;-79
2024/04/15 11:19:04;;;;;;;7.55;2.20;;;;;;;12.67;100.00;99807.72;5356060;26;20371;-79
2024/04/15 11:21:35;;;;;;;5.70;1.90;;;;;;;12.45;91.01;99794.13;5346495;26;20364;-76
2024/04/15 11:24:02;;;;;;;9.48;2.13;;;;;;;12.48;88.26;99790.78;5345546;26;20975;-79
2024/04/15 11:26:36;;;;;;;7.57;2.10;;;;;;;12.54;100.00;99784.88;5343708;26;20908;-77
2024/04/15 11:29:08;;;;;;;8.02;2.20;;;;;;;12.61;98.23;99781.69;5344912;26;20336;-76
2024/04/15 11:31:41;;;;;;;6.40;1.90;;;;;;;12.52;88.52;99767.19;5352700;26;20366;-76